Terminal Aerodrome Forecast
Issued by NWS Paducah, KY

Home | Current Version | Previous Version | Text Only | Print | Product List | Glossary On
Versions: 1 2 3 4 5 6 7 8 9 10 11 12 13 14
000
FTUS43 KPAH 170500
TAFPAH
TAF
KPAH 170520Z 1706/1806 04004KT 5SM BR MIFG SKC
     FM171430 07003KT P6SM SCT150
     FM172000 00000KT P6SM -SHRA BKN040
      TEMPO 1722/1724 -SHRA OVC030=

USA.gov is the U.S. government's official web portal to all federal, state and local government web resources and services.